Terminal Aerodrome Forecast
Issued by NWS Charleston, WV

Current Version | Previous Version | Graphics & Text | Print | Product List | Glossary On
Versions: 1 2 3 4 5 6 7 8 9 10 11 12 13 14 15 16 17 18 19 20 21 22 23 24
000
FTUS41 KRLX 271501 AAA
TAFEKN
TAF AMD
KEKN 271501Z 2715/2812 19006KT P6SM -SHRA OVC025
     FM271900 19006KT P6SM OVC035
     FM280000 15003KT P6SM BKN080
     FM280500 15002KT P6SM BKN120=

USA.gov is the U.S. government's official web portal to all federal, state and local government web resources and services.